.
WxDataArchive / Data Records for 2007-06-26
2007-06-25 June 2007 2007-06-27

Data Records for Tuesday, 26 June 2007

Time	Temp	Chill	HIndex	Humid	Dewpt	 Wind 	HiWind	WindDir	Rain 	Barom 
-----	----	-----	------	-----	-----	------	------	-------	-----	----- 
00:00	70.8	70.8	70.8	88	67.1	0	0	---	0.00	30.103 
00:05	70.8	70.8	70.8	88	67.1	0	0	---	0.00	30.098 
00:10	70.8	70.8	70.8	89	67.4	0	0	---	0.00	30.096 
00:15	70.8	70.8	70.8	89	67.4	0	0	---	0.00	30.096 
00:20	70.8	70.8	70.8	89	67.4	0	0	---	0.00	30.098 
00:25	70.9	70.9	70.9	89	67.5	0	0	---	0.00	30.093 
00:30	71.1	71.1	71.1	88	67.4	0	1	135	0.00	30.095 
00:35	71.1	71.1	71.1	88	67.4	0	0	---	0.00	30.097 
00:40	71.3	71.3	71.3	88	67.6	0	0	---	0.00	30.102 
00:45	71.3	71.3	71.3	88	67.6	0	0	---	0.00	30.103 
00:50	71.1	71.1	71.1	88	67.4	0	0	---	0.00	30.104 
00:55	71.1	71.1	71.1	88	67.4	0	0	---	0.00	30.103 
01:00	70.9	70.9	70.9	88	67.2	0	0	---	0.00	30.104 
01:05	70.9	70.9	70.9	88	67.2	0	0	---	0.00	30.105 
01:10	70.8	70.8	70.8	88	67.1	0	0	---	0.00	30.104 
01:15	70.8	70.8	70.8	88	67.1	0	0	---	0.00	30.105 
01:20	70.6	70.6	70.6	89	67.2	0	0	---	0.00	30.105 
01:25	70.6	70.6	70.6	89	67.2	0	0	---	0.00	30.105 
01:30	70.4	70.4	70.4	89	67.0	0	0	---	0.00	30.105 
01:35	70.3	70.3	70.3	89	66.9	0	0	---	0.00	30.106 
01:40	70.3	70.3	70.3	90	67.2	0	0	---	0.00	30.106 
01:45	70.1	70.1	70.1	90	67.0	0	0	---	0.00	30.105 
01:50	69.9	69.9	69.9	90	66.8	0	0	---	0.00	30.106 
01:55	69.9	69.9	69.9	90	66.8	0	0	---	0.00	30.105 
02:00	69.9	69.9	69.9	91	67.1	0	0	---	0.00	30.105 
02:05	69.9	69.9	69.9	91	67.1	0	0	---	0.00	30.105 
02:10	69.9	69.9	69.9	91	67.1	0	0	---	0.00	30.104 
02:15	69.9	69.9	69.9	91	67.1	0	0	---	0.00	30.106 
02:20	69.9	69.9	69.9	91	67.1	0	0	---	0.00	30.106 
02:25	69.9	69.9	69.9	91	67.1	0	0	---	0.00	30.107 
02:30	69.9	69.9	69.9	92	67.5	0	0	---	0.00	30.107 
02:35	69.9	69.9	69.9	91	67.1	0	0	---	0.00	30.110 
02:40	69.9	69.9	69.9	92	67.5	0	0	---	0.00	30.110 
02:45	69.9	69.9	69.9	92	67.5	0	0	---	0.00	30.115 
02:50	70.1	70.1	70.1	91	67.3	0	0	---	0.00	30.114 
02:55	70.1	70.1	70.1	92	67.7	0	0	---	0.00	30.116 
03:00	69.9	69.9	69.9	91	67.1	0	0	---	0.00	30.118 
03:05	69.9	69.9	69.9	91	67.1	0	0	---	0.00	30.119 
03:10	69.8	69.8	69.8	91	67.0	0	0	---	0.00	30.117 
03:15	69.6	69.6	69.6	92	67.2	0	0	---	0.00	30.118 
03:20	69.6	69.6	69.6	92	67.2	0	0	---	0.00	30.117 
03:25	69.6	69.6	69.6	92	67.2	0	0	---	0.00	30.115 
03:30	69.4	69.4	69.4	92	67.0	0	0	---	0.00	30.112 
03:35	69.4	69.4	69.4	92	67.0	0	0	---	0.00	30.114 
03:40	69.3	69.3	69.3	92	66.9	0	0	---	0.00	30.118 
03:45	69.3	69.3	69.3	93	67.2	0	0	---	0.00	30.118 
03:50	69.1	69.1	69.1	93	67.0	0	0	---	0.00	30.118 
03:55	68.9	68.9	68.9	93	66.8	0	0	---	0.00	30.117 
04:00	68.9	68.9	68.9	93	66.8	0	0	---	0.00	30.117 
04:05	68.8	68.8	68.8	93	66.7	0	0	---	0.00	30.121 
04:10	68.8	68.8	68.8	94	67.0	0	0	---	0.00	30.121 
04:15	68.8	68.8	68.8	94	67.0	0	0	---	0.00	30.120 
04:20	69.1	69.1	69.1	95	67.6	0	0	---	0.00	30.121 
04:25	69.1	69.1	69.1	95	67.6	0	1	135	0.00	30.120 
04:30	69.1	69.1	69.1	95	67.6	0	0	---	0.00	30.117 
04:35	69.1	69.1	69.1	95	67.6	0	0	---	0.00	30.118 
04:40	68.9	68.9	68.9	95	67.4	0	1	135	0.00	30.119 
04:45	68.9	68.9	68.9	95	67.4	0	0	---	0.00	30.120 
04:50	69.3	69.3	69.3	95	67.8	0	1	135	0.00	30.120 
04:55	69.4	69.4	69.4	95	67.9	0	1	135	0.00	30.120 
05:00	69.6	69.6	69.6	96	68.4	0	1	135	0.00	30.120 
05:05	69.6	69.6	69.6	96	68.4	0	1	135	0.00	30.121 
05:10	69.6	69.6	69.6	96	68.4	0	1	135	0.00	30.122 
05:15	69.6	69.6	69.6	95	68.1	0	0	---	0.00	30.124 
05:20	69.6	69.6	69.6	95	68.1	0	1	135	0.00	30.125 
05:25	69.4	69.4	69.4	95	67.9	0	0	---	0.00	30.125 
05:30	69.4	69.4	69.4	96	68.2	0	0	---	0.00	30.124 
05:35	69.6	69.6	69.6	96	68.4	0	1	135	0.00	30.124 
05:40	69.6	69.6	69.6	96	68.4	0	0	---	0.00	30.123 
05:45	69.6	69.6	69.6	96	68.4	0	1	135	0.00	30.124 
05:50	69.9	69.9	69.9	96	68.7	0	2	135	0.00	30.123 
05:55	70.1	70.1	70.1	96	68.9	0	3	202	0.00	30.122 
06:00	70.3	70.3	70.3	96	69.1	0	3	225	0.00	30.123 
06:05	70.4	70.4	70.4	96	69.2	0	1	225	0.00	30.123 
06:10	70.4	70.4	70.4	95	68.9	0	1	225	0.00	30.124 
06:15	70.8	70.8	70.8	95	69.3	0	2	225	0.00	30.126 
06:20	70.9	70.9	70.9	94	69.1	1	4	225	0.00	30.129 
06:25	71.3	71.3	71.3	93	69.2	1	2	292	0.00	30.131 
06:30	71.6	71.6	71.6	92	69.1	0	1	292	0.00	30.133 
06:35	72.0	72.0	72.0	91	69.2	0	2	292	0.00	30.135 
06:40	72.3	72.3	72.3	89	68.9	0	2	270	0.00	30.135 
06:45	72.8	72.8	72.8	88	69.0	0	2	270	0.00	30.135 
06:50	73.2	73.2	73.2	86	68.7	0	3	248	0.00	30.135 
06:55	73.7	73.7	73.7	84	68.6	1	3	248	0.00	30.136 
07:00	74.0	74.0	74.0	83	68.5	1	2	248	0.00	30.135 
07:05	74.4	74.4	74.4	83	68.9	0	2	248	0.00	30.137 
07:10	74.7	74.7	74.7	81	68.5	1	3	248	0.00	30.135 
07:15	75.3	75.3	75.9	81	69.1	0	1	248	0.00	30.136 
07:20	75.6	75.6	76.4	80	69.0	0	2	248	0.00	30.135 
07:25	76.0	76.0	77.1	79	69.0	0	2	248	0.00	30.136 
07:30	76.5	76.5	77.9	78	69.1	0	2	248	0.00	30.136 
07:35	77.0	77.0	78.7	77	69.2	0	2	248	0.00	30.135 
07:40	77.6	77.6	79.6	75	69.0	0	2	248	0.00	30.135 
07:45	77.9	77.9	80.0	75	69.3	1	3	248	0.00	30.137 
07:50	78.1	78.1	80.3	73	68.7	1	3	248	0.00	30.138 
07:55	78.5	78.5	80.9	73	69.1	1	3	248	0.00	30.138 
08:00	78.5	78.5	80.9	73	69.1	1	4	248	0.00	30.135 
08:05	78.6	78.6	81.1	74	69.6	1	2	248	0.00	30.136 
08:10	78.8	78.8	81.4	74	69.8	1	3	270	0.00	30.135 
08:15	79.4	79.4	82.3	73	70.0	1	4	270	0.00	30.137 
08:20	79.8	79.8	83.0	73	70.4	1	3	270	0.00	30.136 
08:25	80.1	80.1	83.2	71	69.8	1	3	248	0.00	30.135 
08:30	80.3	80.3	83.7	72	70.4	1	3	270	0.00	30.137 
08:35	80.5	80.5	83.9	71	70.2	1	3	248	0.00	30.137 
08:40	80.9	80.9	84.5	70	70.2	1	3	248	0.00	30.136 
08:45	81.2	81.2	85.0	70	70.5	1	3	270	0.00	30.135 
08:50	81.4	81.4	85.1	69	70.2	2	4	270	0.00	30.135 
08:55	81.8	81.8	85.9	69	70.6	1	3	248	0.00	30.133 
09:00	82.8	82.8	87.5	68	71.1	0	1	248	0.00	30.133 
09:05	83.0	83.0	87.1	65	70.0	1	2	248	0.00	30.136 
09:10	82.8	82.8	86.7	65	69.8	2	4	270	0.00	30.137 
09:15	83.0	83.0	87.6	67	70.9	1	3	270	0.00	30.138 
09:20	83.2	83.2	87.5	65	70.2	1	3	270	0.00	30.137 
09:25	83.2	83.2	88.0	67	71.1	1	4	248	0.00	30.139 
09:30	83.6	83.6	88.5	66	71.0	1	3	270	0.00	30.136 
09:35	84.0	84.0	88.6	64	70.5	1	3	270	0.00	30.137 
09:40	84.3	84.3	88.6	62	69.8	1	4	112	0.00	30.135 
09:45	84.5	84.5	89.0	62	70.0	1	3	248	0.00	30.134 
09:50	84.7	84.7	89.0	61	69.7	1	4	270	0.00	30.134 
09:55	84.9	84.9	89.4	61	69.9	2	4	90	0.00	30.135 
10:00	85.3	85.3	90.1	61	70.3	1	4	248	0.00	30.139 
10:05	85.5	85.5	89.8	59	69.5	2	5	270	0.00	30.144 
10:10	85.5	85.5	89.8	59	69.5	1	4	270	0.00	30.144 
10:15	84.9	84.9	88.8	59	68.9	1	3	270	0.00	30.140 
10:20	84.7	84.7	89.3	62	70.2	1	4	270	0.00	30.140 
10:25	84.7	84.7	88.4	59	68.8	1	3	248	0.00	30.144 
10:30	84.5	84.5	88.7	61	69.5	1	3	248	0.00	30.148 
10:35	84.7	84.7	89.0	61	69.7	1	3	292	0.00	30.146 
10:40	84.7	84.7	88.7	60	69.2	2	4	248	0.00	30.147 
10:45	85.7	85.7	90.2	59	69.7	1	4	248	0.00	30.147 
10:50	86.3	86.3	91.3	59	70.2	2	6	270	0.00	30.148 
10:55	86.3	86.3	90.6	57	69.2	2	4	248	0.00	30.147 
11:00	85.9	85.9	89.6	56	68.3	2	5	248	0.00	30.150 
11:05	84.9	84.9	88.2	57	67.9	1	3	270	0.00	30.151 
11:10	84.7	84.7	88.4	59	68.8	1	3	270	0.00	30.150 
11:15	84.9	84.9	88.8	59	68.9	2	4	315	0.00	30.152 
11:20	85.3	85.3	89.5	59	69.3	1	4	248	0.00	30.150 
11:25	85.9	85.9	89.6	56	68.3	2	7	248	0.00	30.149 
11:30	86.3	86.3	90.2	56	68.7	2	4	270	0.00	30.148 
11:35	87.0	87.0	91.5	56	69.4	2	4	270	0.00	30.147 
11:40	87.4	87.4	92.2	56	69.7	2	5	248	0.00	30.145 
11:45	87.6	87.6	91.8	54	68.9	2	5	248	0.00	30.145 
11:50	87.8	87.8	92.2	54	69.0	1	3	248	0.00	30.139 
11:55	87.4	87.4	91.1	53	68.1	1	4	248	0.00	30.140 
12:00	87.6	87.6	91.8	54	68.9	2	4	248	0.00	30.137 
12:05	88.0	88.0	91.0	50	67.0	3	7	270	0.00	30.138 
12:10	88.4	88.4	91.7	50	67.4	2	4	270	0.00	30.139 
12:15	89.0	89.0	93.6	52	69.0	1	3	270	0.00	30.137 
12:20	88.6	88.6	92.1	50	67.5	2	10	270	0.00	30.137 
12:25	88.6	88.6	92.9	52	68.7	2	10	270	0.00	30.135 
12:30	88.8	88.8	92.4	50	67.7	2	7	248	0.00	30.133 
12:35	88.2	88.2	91.8	51	67.7	3	10	270	0.00	30.135 
12:40	88.6	88.6	91.3	48	66.4	2	6	45	0.00	30.134 
12:45	89.0	89.0	92.4	49	67.3	2	5	248	0.00	30.129 
12:50	89.3	89.3	93.7	51	68.8	2	5	270	0.00	30.124 
12:55	89.5	89.5	92.4	47	66.6	2	6	248	0.00	30.123 
13:00	89.3	89.3	92.9	49	67.6	1	5	248	0.00	30.120 
13:05	89.9	89.9	93.5	48	67.5	2	5	248	0.00	30.119 
13:10	90.1	90.1	93.1	46	66.5	2	5	270	0.00	30.118 
13:15	90.3	90.3	93.8	47	67.3	2	7	270	0.00	30.114 
13:20	90.3	90.3	93.0	45	66.0	2	5	248	0.00	30.112 
13:25	90.5	90.5	94.2	47	67.5	2	6	270	0.00	30.110 
13:30	90.7	90.7	94.1	46	67.0	2	5	270	0.00	30.104 
13:35	90.3	90.3	93.4	46	66.7	2	4	270	0.00	30.103 
13:40	90.3	90.3	93.8	47	67.3	1	4	270	0.00	30.102 
13:45	90.5	90.5	93.8	46	66.8	2	5	68	0.00	30.101 
13:50	90.3	90.3	93.4	46	66.7	3	11	248	0.00	30.101 
13:55	90.5	90.5	93.3	45	66.2	2	6	248	0.00	30.100 
14:00	90.7	90.7	93.3	44	65.7	3	6	270	0.00	30.098 
14:05	90.7	90.7	93.7	45	66.4	2	5	270	0.00	30.096 
14:10	91.2	91.2	94.1	44	66.2	1	4	270	0.00	30.094 
14:15	91.6	91.6	93.9	42	65.2	2	4	270	0.00	30.094 
14:20	91.4	91.4	94.0	43	65.7	2	5	270	0.00	30.095 
14:25	90.7	90.7	92.1	41	63.7	2	10	248	0.00	30.093 
14:30	91.0	91.0	93.8	44	66.0	1	5	270	0.00	30.090 
14:35	90.3	90.3	92.6	44	65.4	2	4	248	0.00	30.089 
14:40	90.1	90.1	92.7	45	65.9	2	5	248	0.00	30.087 
14:45	89.7	89.7	92.0	45	65.5	2	4	270	0.00	30.088 
14:50	89.7	89.7	91.6	44	64.8	2	5	270	0.00	30.088 
14:55	90.5	90.5	92.5	43	64.9	2	5	248	0.00	30.087 
15:00	90.7	90.7	93.7	45	66.4	1	3	270	0.00	30.085 
15:05	91.2	91.2	93.3	42	64.9	2	6	270	0.00	30.084 
15:10	91.4	91.4	93.6	42	65.0	2	7	270	0.00	30.082 
15:15	91.4	91.4	92.8	40	63.6	2	5	270	0.00	30.082 
15:20	91.0	91.0	93.4	43	65.4	2	4	270	0.00	30.078 
15:25	90.3	90.3	92.2	43	64.7	2	9	270	0.00	30.076 
15:30	90.7	90.7	92.5	42	64.4	2	4	270	0.00	30.073 
15:35	90.3	90.3	91.8	42	64.0	2	6	248	0.00	30.074 
15:40	90.5	90.5	92.5	43	64.9	3	9	270	0.00	30.071 
15:45	91.0	91.0	93.0	42	64.7	1	4	270	0.00	30.070 
15:50	91.2	91.2	93.3	42	64.9	2	4	270	0.00	30.071 
15:55	91.6	91.6	93.5	41	64.5	1	3	248	0.00	30.068 
16:00	91.8	91.8	94.7	43	66.1	1	2	248	0.00	30.070 
16:05	91.6	91.6	93.9	42	65.2	1	4	248	0.00	30.066 
16:10	91.6	91.6	94.4	43	65.9	1	4	248	0.00	30.064 
16:15	91.6	91.6	93.9	42	65.2	1	3	315	0.00	30.062 
16:20	91.2	91.2	92.9	41	64.2	2	5	248	0.00	30.059 
16:25	91.4	91.4	92.8	40	63.6	1	3	270	0.00	30.057 
16:30	92.1	92.1	93.5	39	63.5	1	3	270	0.00	30.054 
16:35	92.5	92.5	95.0	41	65.3	1	4	270	0.00	30.053 
16:40	92.3	92.3	94.3	40	64.4	1	4	270	0.00	30.052 
16:45	92.3	92.3	94.7	41	65.1	1	3	270	0.00	30.050 
16:50	91.4	91.4	93.6	42	65.0	1	2	270	0.00	30.051 
16:55	90.3	90.3	92.2	43	64.7	1	3	270	0.00	30.053 
17:00	89.9	89.9	92.7	46	66.3	1	4	270	0.00	30.054 
17:05	89.9	89.9	91.9	44	65.0	2	7	248	0.00	30.055 
17:10	90.1	90.1	92.3	44	65.2	1	4	270	0.00	30.056 
17:15	90.3	90.3	92.6	44	65.4	1	3	270	0.00	30.056 
17:20	90.3	90.3	92.2	43	64.7	1	5	248	0.00	30.057 
17:25	89.7	89.7	91.6	44	64.8	2	3	248	0.00	30.059 
17:30	88.8	88.8	91.3	47	65.9	1	2	338	0.00	30.069 
17:35	86.7	86.7	89.3	51	66.4	1	3	292	0.00	30.070 
17:40	85.5	85.5	88.3	54	66.9	0	2	292	0.00	30.070 
17:45	84.7	84.7	87.3	55	66.7	1	3	315	0.00	30.074 
17:50	84.1	84.1	86.9	57	67.2	1	3	270	0.00	30.075 
17:55	83.8	83.8	86.7	58	67.4	1	4	270	0.00	30.075 
18:00	83.0	83.0	85.9	60	67.7	2	5	315	0.00	30.076 
18:05	82.2	82.2	85.1	62	67.9	1	4	315	0.00	30.075 
18:10	81.6	81.6	84.6	64	68.2	2	4	315	0.00	30.074 
18:15	80.9	80.9	84.0	67	68.9	2	4	270	0.00	30.080 
18:20	80.3	80.3	83.3	69	69.2	2	5	248	0.00	30.082 
18:25	79.9	79.9	82.8	70	69.2	2	6	248	0.00	30.094 
18:30	79.9	79.9	82.0	63	66.2	2	6	270	0.00	30.101 
18:35	80.1	80.1	82.2	62	65.9	1	4	248	0.00	30.104 
18:40	78.6	78.6	80.7	68	67.1	1	5	45	0.00	30.094 
18:45	77.4	77.4	79.3	73	68.0	0	2	22	0.01	30.092 
18:50	76.7	76.7	78.3	75	68.2	0	1	22	0.00	30.094 
18:55	75.8	75.8	76.9	78	68.4	0	1	22	0.00	30.095 
19:00	75.6	75.6	76.4	80	69.0	0	0	---	0.00	30.094 
19:05	75.1	75.1	75.6	81	68.9	0	1	22	0.00	30.090 
19:10	74.9	74.9	74.9	83	69.4	0	0	---	0.00	30.090 
19:15	74.7	74.7	74.7	84	69.5	0	0	---	0.00	30.090 
19:20	74.6	74.6	74.6	85	69.8	0	1	22	0.00	30.084 
19:25	74.4	74.4	74.4	85	69.6	0	1	22	0.00	30.087 
19:30	74.4	74.4	74.4	85	69.6	0	1	22	0.00	30.080 
19:35	74.4	74.4	74.4	84	69.2	0	2	270	0.00	30.076 
19:40	74.4	74.4	74.4	85	69.6	0	1	270	0.00	30.075 
19:45	74.4	74.4	74.4	86	69.9	0	1	270	0.00	30.074 
19:50	74.4	74.4	74.4	87	70.3	0	1	270	0.00	30.075 
19:55	74.2	74.2	74.2	87	70.1	0	0	---	0.00	30.076 
20:00	74.0	74.0	74.0	87	69.9	0	2	270	0.00	30.075 
20:05	73.9	73.9	73.9	87	69.8	0	2	270	0.00	30.071 
20:10	73.9	73.9	73.9	87	69.8	0	2	270	0.00	30.072 
20:15	73.7	73.7	73.7	88	69.9	0	1	270	0.00	30.075 
20:20	73.7	73.7	73.7	88	69.9	0	1	270	0.00	30.077 
20:25	73.7	73.7	73.7	87	69.6	0	1	270	0.00	30.073 
20:30	73.7	73.7	73.7	87	69.6	0	1	270	0.00	30.072 
20:35	73.5	73.5	73.5	87	69.4	0	0	---	0.00	30.074 
20:40	73.5	73.5	73.5	87	69.4	0	0	---	0.00	30.076 
20:45	73.3	73.3	73.3	87	69.2	0	1	270	0.00	30.082 
20:50	73.3	73.3	73.3	87	69.2	0	0	---	0.00	30.081 
20:55	73.3	73.3	73.3	86	68.8	0	0	---	0.00	30.083 
21:00	73.2	73.2	73.2	87	69.1	0	0	---	0.00	30.079 
21:05	73.0	73.0	73.0	87	68.9	0	0	---	0.00	30.080 
21:10	72.8	72.8	72.8	88	69.0	0	0	---	0.00	30.077 
21:15	72.7	72.7	72.7	88	68.9	0	0	---	0.00	30.080 
21:20	72.7	72.7	72.7	88	68.9	0	0	---	0.00	30.081 
21:25	72.5	72.5	72.5	88	68.7	0	0	---	0.00	30.080 
21:30	72.3	72.3	72.3	88	68.5	0	0	---	0.00	30.079 
21:35	72.3	72.3	72.3	89	68.9	0	1	270	0.00	30.075 
21:40	72.3	72.3	72.3	89	68.9	0	2	270	0.00	30.074 
21:45	72.1	72.1	72.1	89	68.7	0	2	270	0.00	30.073 
21:50	72.1	72.1	72.1	88	68.3	1	2	248	0.00	30.075 
21:55	72.3	72.3	72.3	88	68.5	1	2	248	0.00	30.075 
22:00	72.3	72.3	72.3	88	68.5	0	2	248	0.00	30.073 
22:05	72.3	72.3	72.3	87	68.2	0	1	248	0.00	30.073 
22:10	72.1	72.1	72.1	87	68.0	0	1	248	0.00	30.074 
22:15	72.0	72.0	72.0	87	67.9	0	0	---	0.00	30.072 
22:20	71.8	71.8	71.8	87	67.7	0	0	---	0.00	30.072 
22:25	71.6	71.6	71.6	88	67.8	0	0	---	0.00	30.073 
22:30	71.6	71.6	71.6	88	67.8	0	0	---	0.00	30.076 
22:35	71.5	71.5	71.5	88	67.7	0	0	---	0.00	30.075 
22:40	71.5	71.5	71.5	89	68.1	0	1	248	0.00	30.073 
22:45	71.3	71.3	71.3	89	67.9	0	1	248	0.00	30.075 
22:50	71.3	71.3	71.3	89	67.9	0	0	---	0.00	30.075 
22:55	71.3	71.3	71.3	89	67.9	0	1	248	0.00	30.074 
23:00	71.3	71.3	71.3	89	67.9	0	0	---	0.00	30.075 
23:05	71.3	71.3	71.3	89	67.9	0	1	248	0.00	30.077 
23:10	71.3	71.3	71.3	89	67.9	0	1	248	0.00	30.076 
23:15	71.3	71.3	71.3	89	67.9	0	0	---	0.00	30.073 
23:20	71.1	71.1	71.1	89	67.7	0	0	---	0.00	30.074 
23:25	70.9	70.9	70.9	90	67.8	0	0	---	0.00	30.075 
23:30	70.9	70.9	70.9	90	67.8	0	0	---	0.00	30.075 
23:35	70.8	70.8	70.8	90	67.7	0	0	---	0.00	30.072 
23:40	70.6	70.6	70.6	91	67.8	0	0	---	0.00	30.072 
23:45	70.4	70.4	70.4	91	67.6	0	0	---	0.00	30.072 
23:50	70.4	70.4	70.4	91	67.6	0	0	---	0.00	30.072 
23:55	70.3	70.3	70.3	91	67.5	0	0	---	0.00	30.071 

CoCoRaHS
IN-AL-39
A2 Web Hosting
Creative Commons License
GoDaddy
Look for:

loaded 2017-10-18 21:53:57 • last modified 2010-11-18 10:43:29
Privacy PolicyDisclaimer
• wx.awcolley.com is powered by PmWiki v.2002016 •
• all content (unless otherwise noted) © 2017 A W Colley